Time;durP1;ratioP1;P1;durP2;ratioP2;P2;SDS_P1;SDS_P2;PMS_P1;PMS_P2;Temp;Humidity;BMP_temperature;BMP_pressure;BME280_temperature;BME280_humidity;BME280_pressure;Samples;Min_cycle;Max_cycle;Signal;HPM_P1;HPM_P2
2023/03/11 00:00:40;;;;;;;3.20;0.00;;;0.50;99.90;;;;;;5041721;28;20036;-77
2023/03/11 00:03:07;;;;;;;2.55;0.08;;;0.40;99.90;;;;;;5042100;28;20032;-78
2023/03/11 00:05:38;;;;;;;3.92;0.00;;;0.40;99.90;;;;;;5059097;28;20104;-78
2023/03/11 00:08:06;;;;;;;5.32;0.00;;;0.30;99.90;;;;;;5040618;28;20025;-78
2023/03/11 00:10:35;;;;;;;2.33;0.00;;;0.30;99.90;;;;;;5041544;28;20032;-80
2023/03/11 00:13:02;;;;;;;3.38;0.00;;;0.20;99.90;;;;;;5042863;28;20025;-80
2023/03/11 00:15:30;;;;;;;1.83;0.00;;;0.10;99.90;;;;;;5042074;28;20530;-77
2023/03/11 00:17:57;;;;;;;5.65;0.25;;;0.30;99.90;;;;;;5040362;28;20055;-79
2023/03/11 00:20:34;;;;;;;7.78;0.35;;;-0.40;99.90;;;;;;5058538;28;20036;-79
2023/03/11 00:23:01;;;;;;;1.10;0.00;;;0.00;99.90;;;;;;5058068;28;20025;-79
2023/03/11 00:25:33;;;;;;;1.40;0.00;;;0.00;99.90;;;;;;5039782;28;20124;-79
2023/03/11 00:27:59;;;;;;;0.63;0.00;;;-0.10;99.90;;;;;;5040042;28;20075;-79
2023/03/11 00:30:25;;;;;;;2.15;0.00;;;-0.10;99.90;;;;;;5059261;28;20096;-79
2023/03/11 00:32:54;;;;;;;2.17;0.10;;;-0.20;99.90;;;;;;5040219;28;20032;-79
2023/03/11 00:35:26;;;;;;;4.50;0.10;;;-0.10;99.90;;;;;;5039990;28;20021;-79
2023/03/11 00:37:55;;;;;;;1.65;0.00;;;-0.10;99.90;;;;;;5039628;28;20021;-79
2023/03/11 00:40:23;;;;;;;0.10;0.00;;;-0.10;99.90;;;;;;5039585;28;20021;-79
2023/03/11 00:42:49;;;;;;;2.55;0.00;;;-0.10;99.90;;;;;;5040787;28;20025;-79
2023/03/11 00:45:18;;;;;;;3.65;0.00;;;-0.20;99.90;;;;;;5040140;28;20028;-79
2023/03/11 00:47:43;;;;;;;;;;;-0.10;99.90;;;;;;5040460;28;20029;-79
2023/03/11 00:50:16;;;;;;;1.05;0.00;;;-0.20;99.90;;;;;;5040330;28;19912;-79
2023/03/11 00:52:43;;;;;;;0.00;0.00;;;-0.20;99.90;;;;;;5039912;28;20021;-79
2023/03/11 00:55:17;;;;;;;3.25;0.00;;;-0.30;99.90;;;;;;5057800;28;20040;-79
2023/03/11 00:57:43;;;;;;;2.58;0.03;;;-0.30;99.90;;;;;;5039166;28;20021;-79
2023/03/11 01:00:14;;;;;;;2.22;0.00;;;-0.30;99.90;;;;;;5038624;28;20452;-79
2023/03/11 01:02:40;;;;;;;1.75;0.00;;;-0.40;99.90;;;;;;5058717;28;20036;-77
2023/03/11 01:05:06;;;;;;;1.45;0.00;;;-0.40;99.90;;;;;;5057735;28;20029;-77
2023/03/11 01:07:32;;;;;;;1.88;0.10;;;-0.40;99.90;;;;;;5039339;28;20029;-77
2023/03/11 01:09:58;;;;;;;1.45;0.00;;;-0.50;99.90;;;;;;5057231;28;20052;-77
2023/03/11 01:12:24;;;;;;;2.33;0.00;;;-0.50;99.90;;;;;;5040088;28;20028;-77
2023/03/11 01:14:50;;;;;;;0.73;0.00;;;-0.50;99.90;;;;;;5057402;28;20472;-77
2023/03/11 01:17:15;;;;;;;1.17;0.05;;;0.90;99.90;;;;;;5038809;28;20500;-77
2023/03/11 01:19:44;;;;;;;3.88;0.00;;;-0.50;99.90;;;;;;5040566;28;20021;-77
2023/03/11 01:22:09;;;;;;;1.15;0.00;;;-0.50;99.90;;;;;;5056910;28;20507;-77
2023/03/11 01:24:35;;;;;;;2.05;0.00;;;-0.60;99.90;;;;;;5057574;28;20108;-77
2023/03/11 01:27:01;;;;;;;2.30;0.00;;;-0.60;99.90;;;;;;5039429;28;20411;-77
2023/03/11 01:29:26;;;;;;;3.00;0.30;;;-0.60;99.90;;;;;;5039941;28;20025;-77
2023/03/11 01:31:52;;;;;;;1.42;0.00;;;-0.60;99.90;;;;;;5039496;28;20021;-77
2023/03/11 01:34:20;;;;;;;2.78;0.38;;;-0.70;99.90;;;;;;5057943;28;20384;-77
2023/03/11 01:36:46;;;;;;;1.30;0.10;;;-0.80;99.90;;;;;;5039944;28;20074;-77
2023/03/11 01:39:11;;;;;;;1.17;0.00;;;-0.70;99.90;;;;;;5040034;28;20071;-77
2023/03/11 01:41:37;;;;;;;1.33;0.00;;;-0.70;99.90;;;;;;5038906;28;20036;-77
2023/03/11 01:44:04;;;;;;;0.70;0.00;;;-0.70;99.90;;;;;;5039400;28;20035;-77
2023/03/11 01:47:00;;;;;;;3.92;0.20;;;-0.70;99.90;;;;;;5039310;28;20029;-77
2023/03/11 01:49:26;;;;;;;2.63;0.00;;;-0.80;99.90;;;;;;5056082;28;20017;-79
2023/03/11 01:51:59;;;;;;;1.92;0.05;;;-0.70;99.90;;;;;;5057310;28;20021;-79
2023/03/11 01:54:32;;;;;;;2.55;0.20;;;-0.70;99.90;;;;;;5056830;28;20104;-79
2023/03/11 01:56:59;;;;;;;2.17;0.00;;;-0.80;99.90;;;;;;5039033;28;20095;-79
2023/03/11 01:59:30;;;;;;;0.43;0.00;;;-0.80;99.90;;;;;;5040353;28;20105;-79
2023/03/11 02:02:34;;;;;;;3.63;0.00;;;-0.80;99.90;;;;;;5056945;28;20438;-79
2023/03/11 02:05:04;;;;;;;0.85;0.00;;;-0.80;99.90;;;;;;4978864;28;20545;-79
2023/03/11 02:07:30;;;;;;;2.90;0.00;;;-0.90;99.90;;;;;;5046921;28;20527;-79
2023/03/11 02:09:56;;;;;;;7.57;0.00;;;-0.90;99.90;;;;;;5055552;28;20106;-77
2023/03/11 02:12:21;;;;;;;0.73;0.00;;;-0.90;99.90;;;;;;5056976;28;20025;-77
2023/03/11 02:14:50;;;;;;;2.05;0.00;;;-0.90;99.90;;;;;;5056488;28;20511;-77
2023/03/11 02:17:22;;;;;;;3.50;0.00;;;-0.90;99.90;;;;;;5058457;28;20044;-77
2023/03/11 02:20:20;;;;;;;3.42;0.35;;;-0.90;99.90;;;;;;5039014;28;20025;-77
2023/03/11 02:22:55;;;;;;;1.97;0.00;;;-1.00;99.90;;;;;;5056640;28;20024;-77
2023/03/11 02:25:45;;;;;;;3.83;0.30;;;-0.90;99.90;;;;;;5038128;28;20271;-77
2023/03/11 02:28:13;;;;;;;1.65;0.00;;;-1.00;99.90;;;;;;5056444;28;20025;-77
2023/03/11 02:30:42;;;;;;;1.75;0.10;;;-1.00;99.90;;;;;;5056199;28;20430;-77
2023/03/11 02:33:09;;;;;;;0.20;0.05;;;-1.10;99.90;;;;;;5056201;28;20384;-77
2023/03/11 02:35:35;;;;;;;0.45;0.43;;;-1.00;99.90;;;;;;5038093;28;20024;-77
2023/03/11 02:38:01;;;;;;;1.55;0.00;;;-1.10;99.90;;;;;;5056490;28;20021;-77
2023/03/11 02:40:38;;;;;;;0.30;0.00;;;-1.10;99.90;;;;;;5056125;28;20029;-77
2023/03/11 02:43:10;;;;;;;0.10;0.00;;;-1.10;99.90;;;;;;5056590;28;20029;-77
2023/03/11 02:45:38;;;;;;;0.22;0.00;;;-1.10;99.90;;;;;;5037661;28;20407;-78
2023/03/11 02:48:07;;;;;;;0.65;0.00;;;-1.10;99.90;;;;;;5038311;28;20037;-78
2023/03/11 02:50:36;;;;;;;1.95;0.00;;;1.30;99.90;;;;;;5038367;28;20029;-76
2023/03/11 02:53:03;;;;;;;1.55;0.00;;;-1.20;99.90;;;;;;5055614;28;20071;-76
2023/03/11 02:55:28;;;;;;;3.33;0.00;;;-1.20;99.90;;;;;;5037847;28;20017;-78
2023/03/11 02:57:54;;;;;;;0.63;0.00;;;-1.20;99.90;;;;;;5038060;28;20480;-78
2023/03/11 03:00:20;;;;;;;3.85;0.00;;;-1.20;99.90;;;;;;5056008;28;20064;-78
2023/03/11 03:02:52;;;;;;;3.50;0.45;;;-1.30;99.90;;;;;;5055712;28;20013;-78
2023/03/11 03:05:19;;;;;;;4.72;0.28;;;-1.40;99.90;;;;;;5037921;28;20399;-78
2023/03/11 03:07:52;;;;;;;1.40;0.00;;;-1.30;99.90;;;;;;5037677;28;20021;-78
2023/03/11 03:10:20;;;;;;;2.08;0.00;;;0.60;99.90;;;;;;5037847;28;20108;-78
2023/03/11 03:12:46;;;;;;;5.55;0.00;;;-1.40;99.90;;;;;;5038569;28;20043;-78
2023/03/11 03:15:14;;;;;;;3.35;0.00;;;-1.40;99.90;;;;;;5038636;28;20013;-78
2023/03/11 03:17:40;;;;;;;;;;;-1.40;99.90;;;;;;5037909;28;20056;-78
2023/03/11 03:20:10;;;;;;;3.17;0.00;;;-1.40;99.90;;;;;;5056253;28;19912;-79
2023/03/11 03:22:37;;;;;;;1.98;0.15;;;-1.40;99.90;;;;;;5057927;28;20057;-77
2023/03/11 03:25:06;;;;;;;0.65;0.00;;;-1.50;99.90;;;;;;5059962;28;20392;-75
2023/03/11 03:27:33;;;;;;;1.35;0.00;;;-1.50;99.90;;;;;;5042434;28;20028;-78
2023/03/11 03:29:58;;;;;;;2.05;0.00;;;-1.50;99.90;;;;;;5059816;28;20453;-77
2023/03/11 03:32:24;;;;;;;2.67;0.00;;;-1.50;99.90;;;;;;5041359;28;20025;-77
2023/03/11 03:34:50;;;;;;;3.88;0.55;;;-1.50;99.90;;;;;;5059708;28;20028;-77
2023/03/11 03:37:20;;;;;;;0.10;0.00;;;-1.20;99.90;;;;;;5059769;28;20071;-76
2023/03/11 03:39:46;;;;;;;0.38;0.00;;;1.80;99.90;;;;;;5059393;28;20159;-77
2023/03/11 03:42:12;;;;;;;1.77;0.00;;;-1.60;99.90;;;;;;5041349;28;20056;-77
2023/03/11 03:44:37;;;;;;;1.40;0.00;;;-1.60;99.90;;;;;;5059445;28;20033;-76
2023/03/11 03:47:03;;;;;;;2.70;0.03;;;-1.70;99.90;;;;;;5041695;28;20071;-77
2023/03/11 03:49:28;;;;;;;1.70;0.00;;;-1.70;99.90;;;;;;5041690;28;20017;-77
2023/03/11 03:52:00;;;;;;;3.60;0.10;;;-1.70;99.90;;;;;;5041218;28;20024;-76
2023/03/11 03:54:28;;;;;;;5.30;0.00;;;-1.80;99.90;;;;;;5041788;28;20446;-77
2023/03/11 03:56:57;;;;;;;2.72;0.00;;;-1.70;99.90;;;;;;5058900;28;20051;-77
2023/03/11 03:59:23;;;;;;;;;;;-1.80;99.90;;;;;;5041411;28;20029;-77
2023/03/11 04:01:48;;;;;;;2.05;0.00;;;-1.80;99.90;;;;;;5041138;28;19911;-77
2023/03/11 04:04:15;;;;;;;2.58;0.00;;;-1.80;99.90;;;;;;5058485;28;20474;-77
2023/03/11 04:06:41;;;;;;;2.13;0.00;;;-1.80;99.90;;;;;;5040705;28;20403;-77
2023/03/11 04:09:10;;;;;;;3.00;0.00;;;-0.60;99.90;;;;;;5059207;28;20032;-77
2023/03/11 04:11:35;;;;;;;1.17;0.00;;;-1.90;99.90;;;;;;5059270;28;20033;-77
2023/03/11 04:14:01;;;;;;;1.85;0.00;;;-1.90;99.90;;;;;;5040666;28;20029;-77
2023/03/11 04:16:27;;;;;;;1.23;0.00;;;-1.90;99.90;;;;;;5040513;28;20025;-77
2023/03/11 04:18:52;;;;;;;3.63;0.00;;;-1.90;99.90;;;;;;5058570;28;20112;-77
2023/03/11 04:21:21;;;;;;;2.50;0.00;;;-1.90;99.90;;;;;;5040312;28;20078;-77
2023/03/11 04:23:47;;;;;;;1.27;0.00;;;-1.90;99.90;;;;;;5058997;28;20032;-77
2023/03/11 04:26:12;;;;;;;1.65;0.00;;;-1.90;99.90;;;;;;5040255;28;20025;-77
2023/03/11 04:28:38;;;;;;;4.43;0.08;;;-1.90;99.90;;;;;;5040905;28;20090;-77
2023/03/11 04:31:04;;;;;;;2.50;0.00;;;-1.90;99.90;;;;;;5058284;28;20465;-77
2023/03/11 04:33:29;;;;;;;2.70;0.00;;;-2.00;99.90;;;;;;5057988;28;20034;-77
2023/03/11 04:36:04;;;;;;;3.53;0.00;;;-2.00;99.90;;;;;;5058620;28;20388;-77
2023/03/11 04:38:29;;;;;;;1.77;0.00;;;-2.10;99.90;;;;;;5040751;28;20021;-77
2023/03/11 04:41:00;;;;;;;1.50;0.10;;;-2.00;99.90;;;;;;5058067;28;20139;-77
2023/03/11 04:43:28;;;;;;;0.93;0.03;;;-2.00;99.90;;;;;;5040611;28;20025;-77
2023/03/11 04:45:54;;;;;;;1.55;0.00;;;;;;;;;;5058085;28;20025;-77
2023/03/11 04:48:20;;;;;;;3.05;0.52;;;-2.00;99.90;;;;;;5040374;28;20052;-77
2023/03/11 04:50:46;;;;;;;0.80;0.10;;;-2.10;99.90;;;;;;5040193;28;20025;-77
2023/03/11 04:53:11;;;;;;;1.27;0.03;;;-2.00;99.90;;;;;;5040780;28;20021;-77
2023/03/11 04:55:45;;;;;;;2.40;0.35;;;-2.10;99.90;;;;;;5040239;28;20530;-77
2023/03/11 04:58:13;;;;;;;2.45;0.00;;;-2.00;99.90;;;;;;5040412;28;20021;-77
2023/03/11 05:00:40;;;;;;;3.88;0.60;;;-2.00;99.90;;;;;;5058137;28;20028;-76
2023/03/11 05:03:05;;;;;;;1.85;0.00;;;-2.00;99.90;;;;;;5040082;28;20028;-77
2023/03/11 05:05:31;;;;;;;2.55;0.00;;;-2.10;99.90;;;;;;5040466;28;20017;-77
2023/03/11 05:07:56;;;;;;;0.60;0.00;;;-2.10;99.90;;;;;;5040251;28;20029;-77
2023/03/11 05:10:22;;;;;;;3.42;0.10;;;-2.10;99.90;;;;;;5040668;28;20022;-78
2023/03/11 05:12:54;;;;;;;1.80;0.40;;;-2.10;99.90;;;;;;5057616;28;20017;-76
2023/03/11 05:15:19;;;;;;;3.10;0.00;;;-2.20;99.90;;;;;;5039969;28;20025;-78
2023/03/11 05:17:45;;;;;;;1.58;0.00;;;-2.20;99.90;;;;;;5058067;28;20021;-76
2023/03/11 05:20:11;;;;;;;1.85;0.22;;;-2.30;99.90;;;;;;5057235;28;20029;-77
2023/03/11 05:22:37;;;;;;;0.45;0.03;;;-0.40;99.90;;;;;;5039573;28;20402;-77
2023/03/11 05:25:06;;;;;;;1.52;0.15;;;-2.30;99.90;;;;;;5057504;28;20485;-77
2023/03/11 05:27:35;;;;;;;4.60;0.10;;;-2.30;99.90;;;;;;5057366;28;20032;-77
2023/03/11 05:30:03;;;;;;;2.70;0.00;;;-2.30;99.90;;;;;;5058113;28;20025;-77
2023/03/11 05:32:35;;;;;;;1.77;0.28;;;-2.30;99.90;;;;;;5040038;28;20126;-77
2023/03/11 05:35:03;;;;;;;1.10;0.00;;;-2.40;99.90;;;;;;5057335;28;20028;-77
2023/03/11 05:37:31;;;;;;;1.50;0.00;;;-2.40;99.90;;;;;;5057223;28;20094;-77
2023/03/11 05:39:57;;;;;;;1.88;0.10;;;-2.40;99.90;;;;;;5039268;28;20114;-77
2023/03/11 05:42:22;;;;;;;5.18;0.00;;;-2.40;99.90;;;;;;5039108;28;20033;-77
2023/03/11 05:44:50;;;;;;;1.90;0.10;;;-2.40;99.90;;;;;;5056803;28;20025;-78
2023/03/11 05:47:16;;;;;;;1.10;0.20;;;-2.50;99.90;;;;;;5039302;28;20029;-78
2023/03/11 05:49:48;;;;;;;3.90;0.00;;;-2.50;99.90;;;;;;5039017;28;20021;-78
2023/03/11 05:52:14;;;;;;;2.58;0.08;;;0.10;99.90;;;;;;5039180;28;20392;-77
2023/03/11 05:54:42;;;;;;;1.92;0.08;;;-2.50;99.90;;;;;;5039124;28;20025;-78
2023/03/11 05:57:10;;;;;;;1.48;0.00;;;-2.60;99.90;;;;;;5056910;28;20021;-78
2023/03/11 05:59:40;;;;;;;1.67;0.00;;;-2.60;99.90;;;;;;5039477;28;20021;-77
2023/03/11 06:02:08;;;;;;;0.90;0.20;;;-2.60;99.90;;;;;;5039159;28;20559;-77
2023/03/11 06:04:34;;;;;;;0.85;0.05;;;-2.60;99.90;;;;;;5038825;28;20063;-78
2023/03/11 06:07:00;;;;;;;3.50;0.10;;;-2.80;99.90;;;;;;5056295;28;20029;-78
2023/03/11 06:09:26;;;;;;;2.22;0.68;;;-2.80;99.90;;;;;;5038203;28;20029;-77
2023/03/11 06:11:51;;;;;;;2.70;0.00;;;-2.70;99.90;;;;;;5039430;28;20017;-77
2023/03/11 06:14:19;;;;;;;4.22;0.00;;;-2.70;99.90;;;;;;5038080;28;20017;-77
2023/03/11 06:16:50;;;;;;;2.38;0.10;;;-2.70;99.90;;;;;;5038973;28;20028;-77
2023/03/11 06:19:22;;;;;;;5.55;0.10;;;-2.70;99.90;;;;;;5038191;28;20025;-77
2023/03/11 06:21:48;;;;;;;3.30;0.10;;;;;;;;;;5038168;28;20025;-78
2023/03/11 06:24:26;;;;;;;4.90;0.08;;;-2.60;99.90;;;;;;5038554;28;20032;-77
2023/03/11 06:26:52;;;;;;;5.63;0.03;;;0.80;99.90;;;;;;5038107;28;20106;-76
2023/03/11 06:29:25;;;;;;;0.80;0.00;;;-2.60;99.90;;;;;;5038234;28;20024;-76
2023/03/11 06:31:51;;;;;;;3.03;0.00;;;-2.60;99.90;;;;;;5056229;28;20139;-77
2023/03/11 06:34:16;;;;;;;3.40;0.00;;;-2.50;99.90;;;;;;5038071;28;20029;-77
2023/03/11 06:36:42;;;;;;;1.30;0.10;;;-2.50;99.90;;;;;;5056236;28;20035;-77
2023/03/11 06:39:14;;;;;;;2.33;0.28;;;-2.50;99.90;;;;;;5038013;28;20120;-77
2023/03/11 06:41:45;;;;;;;1.05;0.20;;;-2.50;99.90;;;;;;5037616;28;20036;-77
2023/03/11 06:44:11;;;;;;;1.65;0.17;;;-2.50;99.90;;;;;;5055943;28;20033;-77
2023/03/11 06:46:37;;;;;;;2.88;0.43;;;0.50;99.90;;;;;;5055746;28;20083;-77
2023/03/11 06:49:03;;;;;;;2.10;0.00;;;-2.30;99.90;;;;;;5037711;28;20448;-77
2023/03/11 06:51:32;;;;;;;1.85;0.15;;;-2.20;99.90;;;;;;5038339;28;20021;-78
2023/03/11 06:53:58;;;;;;;;;;;-2.20;99.90;;;;;;5055996;28;20032;-78
2023/03/11 06:56:26;;;;;;;1.80;0.20;;;-2.10;99.90;;;;;;5054497;28;19905;-78
2023/03/11 06:58:52;;;;;;;4.03;0.47;;;-1.90;99.90;;;;;;5038581;28;20036;-78
2023/03/11 07:01:21;;;;;;;1.55;0.30;;;-1.90;99.90;;;;;;5038006;28;20056;-77
2023/03/11 07:03:48;;;;;;;3.80;0.22;;;-1.80;99.90;;;;;;5055134;28;20116;-78
2023/03/11 07:06:25;;;;;;;5.53;0.20;;;-1.80;99.90;;;;;;5055330;28;20388;-77
2023/03/11 07:08:54;;;;;;;2.03;0.17;;;-1.70;99.90;;;;;;5037928;28;20024;-77
2023/03/11 07:11:29;;;;;;;4.65;0.08;;;-1.60;99.90;;;;;;5038781;28;20029;-77
2023/03/11 07:13:55;;;;;;;6.57;0.35;;;-1.40;99.90;;;;;;5037636;28;20032;-77
2023/03/11 07:16:29;;;;;;;2.67;0.22;;;-1.30;99.90;;;;;;5037557;28;20408;-77
2023/03/11 07:19:01;;;;;;;4.82;0.73;;;-0.70;99.90;;;;;;5037711;28;20092;-77
2023/03/11 07:21:28;;;;;;;4.45;0.40;;;-1.00;99.90;;;;;;5037032;28;20029;-77
2023/03/11 07:23:55;;;;;;;2.15;0.65;;;-0.90;99.90;;;;;;5037319;28;20021;-77
2023/03/11 07:26:22;;;;;;;3.47;0.65;;;-0.80;99.90;;;;;;5055542;28;20022;-77
2023/03/11 07:28:48;;;;;;;2.90;0.30;;;-0.70;99.90;;;;;;5037754;28;20021;-77
2023/03/11 07:31:18;;;;;;;4.05;0.25;;;-0.50;99.90;;;;;;5056156;28;20017;-77
2023/03/11 07:33:45;;;;;;;4.63;0.35;;;-0.50;99.90;;;;;;5037974;28;20037;-77
2023/03/11 07:36:13;;;;;;;5.75;0.20;;;-0.30;99.90;;;;;;5037654;28;20028;-77
2023/03/11 07:38:39;;;;;;;1.73;0.47;;;-0.10;99.90;;;;;;5055350;28;20083;-77
2023/03/11 07:41:05;;;;;;;1.48;0.20;;;0.00;99.90;;;;;;5037399;28;20294;-78
2023/03/11 07:43:32;;;;;;;1.50;0.10;;;0.20;99.90;;;;;;5037489;28;20021;-77
2023/03/11 07:46:06;;;;;;;2.30;0.20;;;0.60;99.90;;;;;;5037123;28;20510;-77
2023/03/11 07:48:32;;;;;;;8.70;0.10;;;0.50;99.90;;;;;;5037683;28;20025;-77
2023/03/11 07:51:06;;;;;;;4.40;0.00;;;0.60;99.90;;;;;;5037971;28;20017;-77
2023/03/11 07:53:35;;;;;;;4.88;0.00;;;0.80;99.90;;;;;;5056789;28;20025;-77
2023/03/11 07:56:11;;;;;;;2.13;0.05;;;0.90;99.90;;;;;;5056644;28;20081;-77
2023/03/11 07:58:37;;;;;;;3.55;0.47;;;2.20;99.90;;;;;;5037819;28;20480;-77
2023/03/11 08:01:20;;;;;;;3.83;0.50;;;1.20;99.90;;;;;;5056123;28;20094;-77
2023/03/11 08:03:48;;;;;;;9.63;0.20;;;1.50;99.90;;;;;;5055520;28;20127;-77
2023/03/11 08:06:18;;;;;;;3.60;0.40;;;1.70;99.90;;;;;;5037190;28;20446;-76
2023/03/11 08:08:44;;;;;;;3.50;0.25;;;1.80;99.90;;;;;;5040039;28;20262;-76
2023/03/11 08:11:14;;;;;;;6.88;0.20;;;1.90;99.90;;;;;;5041262;28;20021;-77
2023/03/11 08:13:41;;;;;;;4.13;0.00;;;2.10;99.90;;;;;;5041280;28;20535;-77
2023/03/11 08:16:12;;;;;;;1.10;0.13;;;2.00;99.90;;;;;;5041026;28;20027;-77
2023/03/11 08:18:38;;;;;;;1.85;0.10;;;2.30;99.90;;;;;;5040651;28;20036;-77
2023/03/11 08:21:05;;;;;;;2.13;0.10;;;2.40;99.90;;;;;;5041706;28;20075;-77
2023/03/11 08:23:31;;;;;;;2.78;0.28;;;2.50;99.90;;;;;;5041444;28;20025;-77
2023/03/11 08:26:09;;;;;;;1.27;0.00;;;2.70;99.90;;;;;;5058913;28;20093;-77
2023/03/11 08:28:38;;;;;;;2.15;0.05;;;4.90;99.90;;;;;;5058812;28;20096;-77
2023/03/11 08:31:14;;;;;;;;;;;2.70;99.90;;;;;;5059212;28;20495;-77
2023/03/11 08:33:43;;;;;;;1.35;0.00;;;2.50;99.90;;;;;;5041070;28;19905;-77
2023/03/11 08:36:15;;;;;;;1.40;0.00;;;3.10;99.90;;;;;;5041012;28;20025;-77
2023/03/11 08:38:47;;;;;;;1.77;0.00;;;3.30;99.90;;;;;;5059528;28;20021;-78
2023/03/11 08:41:19;;;;;;;2.53;0.00;;;3.40;99.90;;;;;;5041074;28;20416;-78
2023/03/11 08:43:45;;;;;;;0.30;0.00;;;3.50;99.90;;;;;;5039652;28;20036;-77
2023/03/11 08:46:32;;;;;;;0.30;0.00;;;3.60;99.90;;;;;;5040800;28;20492;-77
2023/03/11 08:49:05;;;;;;;3.50;0.00;;;3.70;99.90;;;;;;5040674;28;20021;-77
2023/03/11 08:51:33;;;;;;;4.22;0.00;;;3.80;99.90;;;;;;5059663;28;20021;-77
2023/03/11 08:53:59;;;;;;;2.05;0.00;;;3.90;99.90;;;;;;5057800;28;20549;-77
2023/03/11 08:56:25;;;;;;;2.88;0.00;;;3.90;99.90;;;;;;5058151;28;20017;-79
2023/03/11 08:58:51;;;;;;;2.28;0.10;;;4.00;99.90;;;;;;5057957;28;20040;-78
2023/03/11 09:01:18;;;;;;;2.53;0.40;;;4.20;99.90;;;;;;5057817;28;20029;-78
2023/03/11 09:03:47;;;;;;;1.38;0.00;;;4.20;99.90;;;;;;5058043;28;20017;-78
2023/03/11 09:06:14;;;;;;;1.23;0.00;;;4.30;99.90;;;;;;5058400;28;20083;-78
2023/03/11 09:08:40;;;;;;;2.33;0.00;;;4.30;99.90;;;;;;5039694;28;20017;-79
2023/03/11 09:11:06;;;;;;;2.30;0.50;;;4.10;99.90;;;;;;5057894;28;20085;-79
2023/03/11 09:13:32;;;;;;;1.35;0.00;;;4.10;99.90;;;;;;5057503;28;20017;-79
2023/03/11 09:15:58;;;;;;;0.85;0.00;;;4.20;99.90;;;;;;5056658;28;20028;-78
2023/03/11 09:18:23;;;;;;;6.70;0.10;;;4.20;99.90;;;;;;5039169;28;20182;-76
2023/03/11 09:20:56;;;;;;;1.55;0.00;;;4.30;99.90;;;;;;5056382;28;20021;-76
2023/03/11 09:23:25;;;;;;;0.38;0.00;;;4.30;99.90;;;;;;5039522;28;20021;-76
2023/03/11 09:25:51;;;;;;;3.88;0.22;;;4.80;99.90;;;;;;5038950;28;20369;-77
2023/03/11 09:28:16;;;;;;;1.10;0.00;;;4.40;99.90;;;;;;5038874;28;20111;-76
2023/03/11 09:30:42;;;;;;;2.20;0.00;;;5.60;99.90;;;;;;5056299;28;20104;-76
2023/03/11 09:33:07;;;;;;;1.55;0.00;;;4.50;99.90;;;;;;5038754;28;20480;-77
2023/03/11 09:35:33;;;;;;;3.83;0.10;;;4.50;99.90;;;;;;5056773;28;20395;-77
2023/03/11 09:37:59;;;;;;;3.25;0.00;;;4.60;99.90;;;;;;5055053;28;20031;-77
2023/03/11 09:40:27;;;;;;;1.48;0.10;;;4.70;99.90;;;;;;5037359;28;20033;-76
2023/03/11 09:43:25;;;;;;;1.10;0.00;;;4.70;99.90;;;;;;5055363;28;20484;-76
2023/03/11 09:45:59;;;;;;;1.17;0.00;;;4.90;99.90;;;;;;5050629;28;20045;-76
2023/03/11 09:48:38;;;;;;;0.82;0.00;;;5.10;99.90;;;;;;5055760;28;20369;-77
2023/03/11 09:51:36;;;;;;;2.05;0.17;;;5.20;99.90;;;;;;5055126;28;20483;-76
2023/03/11 09:54:10;;;;;;;2.67;0.20;;;5.40;99.90;;;;;;5021536;28;20079;-76
2023/03/11 09:56:36;;;;;;;1.30;0.00;;;5.50;99.90;;;;;;5055389;28;20025;-76
2023/03/11 09:59:12;;;;;;;1.63;0.00;;;5.60;99.90;;;;;;5037811;28;20074;-76
2023/03/11 10:01:43;;;;;;;3.25;0.03;;;5.80;99.90;;;;;;5055283;28;20025;-76
2023/03/11 10:04:36;;;;;;;2.15;0.00;;;6.00;99.90;;;;;;5055418;28;20025;-76
2023/03/11 10:07:12;;;;;;;3.35;0.00;;;5.90;99.90;;;;;;5036768;28;20504;-76
2023/03/11 10:09:55;;;;;;;1.80;0.00;;;6.20;99.90;;;;;;5056222;28;20060;-77
2023/03/11 10:12:42;;;;;;;0.10;0.00;;;6.30;99.90;;;;;;5055947;28;20017;-76
2023/03/11 10:15:23;;;;;;;2.00;0.20;;;6.30;99.90;;;;;;5055234;28;20066;-76
2023/03/11 10:18:18;;;;;;;0.22;0.00;;;6.30;99.90;;;;;;5055529;28;20468;-76
2023/03/11 10:21:08;;;;;;;3.30;0.00;;;6.30;99.90;;;;;;5037858;28;20028;-76
2023/03/11 10:23:55;;;;;;;2.47;0.00;;;6.60;99.90;;;;;;5036881;28;20048;-76
2023/03/11 10:26:44;;;;;;;0.75;0.03;;;6.40;99.90;;;;;;5054786;28;20024;-76
2023/03/11 10:29:19;;;;;;;1.80;0.05;;;6.30;99.90;;;;;;5055421;28;20028;-75
2023/03/11 10:31:59;;;;;;;0.20;0.00;;;6.20;99.90;;;;;;5037268;28;20041;-75
2023/03/11 10:34:53;;;;;;;2.25;0.00;;;6.20;99.90;;;;;;5056500;28;20025;-77
2023/03/11 10:37:34;;;;;;;1.20;0.00;;;6.20;99.90;;;;;;5055190;28;20033;-76
2023/03/11 10:40:21;;;;;;;2.42;0.20;;;6.00;99.90;;;;;;5054695;28;20029;-75
2023/03/11 10:42:48;;;;;;;1.55;0.00;;;6.00;99.90;;;;;;5036617;28;20052;-75
2023/03/11 10:45:15;;;;;;;1.38;0.00;;;6.00;99.90;;;;;;5037106;28;20087;-76
2023/03/11 10:47:40;;;;;;;0.15;0.00;;;6.00;99.90;;;;;;5036612;28;20028;-76
2023/03/11 10:50:11;;;;;;;1.33;0.25;;;6.20;99.90;;;;;;5036547;28;20431;-76
2023/03/11 10:53:08;;;;;;;0.10;0.00;;;6.10;99.90;;;;;;5036038;28;20543;-75
2023/03/11 10:55:34;;;;;;;0.85;0.00;;;6.20;99.90;;;;;;5029010;28;20451;-75
2023/03/11 10:58:13;;;;;;;1.52;0.00;;;6.10;99.90;;;;;;5036338;28;20050;-76
2023/03/11 11:00:39;;;;;;;1.33;0.00;;;6.30;99.90;;;;;;5053828;28;20108;-76
2023/03/11 11:03:19;;;;;;;2.22;0.00;;;6.40;99.90;;;;;;5054394;28;20598;-76
2023/03/11 11:05:57;;;;;;;0.25;0.00;;;6.40;99.90;;;;;;5054310;28;20029;-76
2023/03/11 11:08:23;;;;;;;8.65;0.10;;;6.50;99.90;;;;;;5054359;28;20048;-76
2023/03/11 11:10:52;;;;;;;0.55;0.10;;;6.50;99.90;;;;;;5036298;28;20021;-76
2023/03/11 11:13:23;;;;;;;4.47;0.00;;;6.60;99.90;;;;;;5054355;28;20476;-76
2023/03/11 11:16:03;;;;;;;3.20;0.00;;;6.70;99.90;;;;;;5036044;28;20025;-76
2023/03/11 11:18:40;;;;;;;2.50;0.00;;;6.70;99.90;;;;;;5036577;28;20434;-76
2023/03/11 11:21:12;;;;;;;1.88;0.00;;;6.80;97.70;;;;;;5035941;28;20021;-76
2023/03/11 11:23:46;;;;;;;1.13;0.30;;;6.80;99.90;;;;;;5035793;28;20127;-76
2023/03/11 11:26:18;;;;;;;4.45;0.00;;;6.90;99.80;;;;;;5035521;28;20021;-76
2023/03/11 11:28:43;;;;;;;2.25;0.00;;;7.10;99.90;;;;;;5035589;28;20486;-76
2023/03/11 11:31:40;;;;;;;3.40;0.25;;;7.20;99.80;;;;;;5036176;28;20063;-76
2023/03/11 11:34:29;;;;;;;2.67;0.00;;;7.30;96.70;;;;;;5042401;28;20029;-75
2023/03/11 11:36:57;;;;;;;2.65;0.13;;;7.50;99.80;;;;;;5053490;28;20033;-75
2023/03/11 11:39:29;;;;;;;0.68;0.00;;;7.60;96.10;;;;;;5053331;28;20459;-75
2023/03/11 11:41:55;;;;;;;2.40;0.30;;;7.30;96.70;;;;;;5053985;28;20032;-75
2023/03/11 11:44:24;;;;;;;0.05;0.00;;;7.30;96.20;;;;;;5056956;28;20029;-75
2023/03/11 11:46:53;;;;;;;1.60;0.00;;;7.10;96.70;;;;;;5040364;28;20483;-75
2023/03/11 11:49:30;;;;;;;3.65;0.00;;;7.20;98.20;;;;;;5058752;28;20500;-75
2023/03/11 11:52:13;;;;;;;2.75;0.00;;;7.30;95.90;;;;;;5058386;28;20523;-75
2023/03/11 11:55:05;;;;;;;0.60;0.00;;;7.30;97.40;;;;;;5039695;28;20035;-75
2023/03/11 11:57:31;;;;;;;3.25;0.00;;;7.50;93.90;;;;;;5040086;28;20025;-75
2023/03/11 11:59:58;;;;;;;2.33;0.05;;;7.50;95.80;;;;;;5058516;28;20029;-75
2023/03/11 12:02:44;;;;;;;1.13;0.30;;;7.80;98.30;;;;;;5057512;28;20033;-75
2023/03/11 12:05:16;;;;;;;1.95;0.10;;;7.70;95.50;;;;;;5057223;28;20025;-75
2023/03/11 12:07:51;;;;;;;2.53;0.17;;;7.60;94.90;;;;;;5039281;28;20021;-75
2023/03/11 12:10:26;;;;;;;1.65;0.10;;;7.50;97.70;;;;;;5039199;28;20032;-75
2023/03/11 12:13:29;;;;;;;1.80;0.00;;;7.60;95.70;;;;;;5039395;28;20546;-75
2023/03/11 12:16:30;;;;;;;2.65;0.00;;;7.80;95.20;;;;;;5057135;28;20025;-75
2023/03/11 12:19:09;;;;;;;5.00;0.85;;;7.90;95.10;;;;;;5039591;28;20080;-75
2023/03/11 12:21:49;;;;;;;5.55;1.35;;;8.00;95.30;;;;;;5039501;28;20025;-75
2023/03/11 12:24:33;;;;;;;14.23;0.55;;;8.10;96.20;;;;;;5039770;28;20115;-75
2023/03/11 12:27:04;;;;;;;5.82;0.00;;;8.40;96.70;;;;;;5039273;28;20021;-75
2023/03/11 12:29:43;;;;;;;1.55;0.00;;;8.70;93.40;;;;;;5039486;28;20017;-75
2023/03/11 12:32:34;;;;;;;1.73;0.00;;;8.80;93.20;;;;;;5038841;28;20060;-75
2023/03/11 12:35:04;;;;;;;0.55;0.00;;;8.90;90.20;;;;;;5057754;28;20127;-75
2023/03/11 12:37:30;;;;;;;1.25;0.00;;;8.80;87.00;;;;;;5057252;28;20029;-75
2023/03/11 12:39:55;;;;;;;1.30;0.00;;;8.70;90.10;;;;;;5039729;28;20057;-75
2023/03/11 12:42:25;;;;;;;2.10;0.35;;;8.50;85.30;;;;;;5039164;28;20361;-74
2023/03/11 12:44:52;;;;;;;3.30;0.32;;;8.30;89.30;;;;;;5056339;28;20035;-75
2023/03/11 12:47:27;;;;;;;2.28;0.00;;;8.50;88.70;;;;;;5056895;28;20021;-75
2023/03/11 12:50:14;;;;;;;3.33;0.52;;;8.80;91.70;;;;;;5039184;28;20021;-75
2023/03/11 12:52:53;;;;;;;0.90;0.10;;;8.80;84.20;;;;;;5056065;28;20106;-75
2023/03/11 12:55:31;;;;;;;4.82;0.98;;;8.60;89.30;;;;;;5056363;28;20487;-75
2023/03/11 12:58:05;;;;;;;5.07;0.00;;;8.50;87.00;;;;;;5038570;28;20017;-75
2023/03/11 13:00:48;;;;;;;0.00;0.00;;;8.80;85.80;;;;;;5038635;28;20115;-75
2023/03/11 13:03:44;;;;;;;2.03;0.05;;;8.80;83.50;;;;;;5056341;28;20025;-75
2023/03/11 13:06:36;;;;;;;10.30;0.60;;;8.90;86.00;;;;;;5039145;28;20017;-75
2023/03/11 13:09:03;;;;;;;0.10;0.00;;;9.00;90.20;;;;;;5039480;28;20018;-75
2023/03/11 13:11:37;;;;;;;3.10;0.00;;;9.30;91.20;;;;;;5057189;28;20035;-75